| time (UTC) | temp F | wind direction | speed knots | gust knots | rain 1hr in | rain 24hr in | rain mn in | humidity % | barometer mb |
| 20260507065942 | 37 | 76 | 0.0 | 0.0 | 0.00 | 0.00 | 0.00 | 95 | 1030.7 |
| 20260507065439 | 37 | 76 | 0.0 | 0.0 | 0.00 | 0.00 | 0.00 | 95 | 1030.5 |
| 20260507064936 | 37 | 76 | 0.0 | 0.0 | 0.00 | 0.00 | 0.00 | 95 | 1030.6 |
| 20260507064435 | 38 | 76 | 0.0 | 0.0 | 0.00 | 0.00 | 0.00 | 95 | 1030.4 |
| 20260507063932 | 38 | 77 | 0.0 | 0.0 | 0.00 | 0.00 | 0.00 | 95 | 1030.6 |
| 20260507063429 | 38 | 77 | 0.0 | 0.0 | 0.00 | 0.00 | 0.00 | 95 | 1030.7 |
| 20260507062926 | 38 | 78 | 0.0 | 0.0 | 0.00 | 0.00 | 0.00 | 95 | 1030.8 |
| 20260507062423 | 38 | 78 | 0.0 | 0.0 | 0.00 | 0.00 | 0.00 | 95 | 1031.0 |
| 20260507061920 | 38 | 78 | 0.0 | 0.0 | 0.00 | 0.00 | 0.00 | 95 | 1030.9 |
| 20260507061418 | 38 | 78 | 0.0 | 0.0 | 0.00 | 0.00 | 0.00 | 95 | 1031.0 |
| 20260507060917 | 39 | 78 | 0.0 | 0.0 | 0.00 | 0.00 | 0.00 | 95 | 1031.0 |
| 20260507060413 | 39 | 78 | 0.0 | 0.0 | 0.00 | 0.00 | 0.00 | 94 | 1030.9 |
| 20260507055910 | 38 | 78 | 0.0 | 0.0 | 0.00 | 0.00 | 0.00 | 94 | 1031.2 |
| 20260507055405 | 38 | 78 | 0.0 | 0.0 | 0.00 | 0.00 | 0.00 | 94 | 1031.1 |
| 20260507054902 | 39 | 78 | 0.0 | 0.0 | 0.00 | 0.00 | 0.00 | 94 | 1031.0 |
| 20260507054358 | 39 | 78 | 0.0 | 0.0 | 0.00 | 0.00 | 0.00 | 94 | 1031.1 |
| 20260507053855 | 39 | 78 | 0.0 | 0.0 | 0.00 | 0.00 | 0.00 | 94 | 1030.8 |
| 20260507053353 | 39 | 78 | 0.0 | 0.0 | 0.00 | 0.00 | 0.00 | 93 | 1031.1 |
| 20260507052852 | 39 | 78 | 0.0 | 0.0 | 0.00 | 0.00 | 0.00 | 93 | 1031.0 |
| 20260507052348 | 39 | 78 | 0.0 | 0.0 | 0.00 | 0.00 | 0.00 | 93 | 1031.3 |
| 20260507051846 | 39 | 78 | 0.0 | 0.0 | 0.00 | 0.00 | 0.00 | 92 | 1031.2 |
| 20260507051343 | 39 | 78 | 0.0 | 0.0 | 0.00 | 0.00 | 0.00 | 91 | 1031.3 |
| 20260507050839 | 39 | 79 | 0.0 | 0.0 | 0.00 | 0.00 | 0.00 | 91 | 1031.2 |
| 20260507050336 | 39 | 82 | 0.0 | 0.0 | 0.00 | 0.00 | 0.00 | 91 | 1031.1 |
| 20260507045833 | 39 | 85 | 0.0 | 0.0 | 0.00 | 0.00 | 0.00 | 91 | 1031.3 |
| 20260507045330 | 39 | 61 | 0.9 | 0.9 | 0.00 | 0.00 | 0.00 | 93 | 1031.3 |
| 20260507044827 | 40 | 60 | 0.0 | 0.0 | 0.00 | 0.00 | 0.00 | 93 | 1031.1 |
| 20260507044324 | 40 | 60 | 0.0 | 0.0 | 0.00 | 0.00 | 0.00 | 92 | 1031.3 |
| 20260507043819 | 40 | 55 | 0.0 | 0.0 | 0.00 | 0.00 | 0.00 | 91 | 1031.2 |
| 20260507043316 | 40 | 52 | 0.0 | 0.0 | 0.00 | 0.00 | 0.00 | 90 | 1031.1 |
| 20260507042812 | 40 | 43 | 0.0 | 0.9 | 0.00 | 0.00 | 0.00 | 91 | 1031.2 |
| 20260507042308 | 40 | 55 | 0.0 | 0.9 | 0.00 | 0.00 | 0.00 | 91 | 1031.4 |
| 20260507041805 | 40 | 50 | 0.0 | 0.0 | 0.00 | 0.00 | 0.00 | 92 | 1031.1 |
| 20260507041302 | 40 | 56 | 0.9 | 1.7 | 0.00 | 0.00 | 0.00 | 93 | 1030.9 |
| 20260507040759 | 40 | 60 | 0.0 | 0.0 | 0.00 | 0.00 | 0.00 | 93 | 1030.9 |
| 20260507040255 | 40 | 59 | 0.0 | 0.0 | 0.00 | 0.00 | 0.00 | 93 | 1031.2 |
| 20260507035751 | 41 | 48 | 1.7 | 1.7 | 0.00 | 0.92 | 0.92 | 93 | 1031.0 |
| 20260507035246 | 40 | 36 | 0.9 | 1.7 | 0.00 | 0.92 | 0.92 | 93 | 1031.0 |
| 20260507034744 | 41 | 54 | 0.0 | 0.0 | 0.00 | 0.92 | 0.92 | 93 | 1030.7 |
| 20260507034241 | 41 | 45 | 0.9 | 0.9 | 0.00 | 0.92 | 0.92 | 94 | 1031.1 |
| 20260507033740 | 41 | 43 | 0.9 | 0.9 | 0.00 | 0.92 | 0.92 | 93 | 1030.8 |
| 20260507033237 | 41 | 45 | 1.7 | 1.7 | 0.00 | 0.92 | 0.92 | 93 | 1030.7 |
| 20260507032734 | 41 | 40 | 1.7 | 1.7 | 0.00 | 0.92 | 0.92 | 93 | 1030.7 |
| 20260507032230 | 41 | 45 | 0.9 | 0.9 | 0.00 | 0.92 | 0.92 | 94 | 1030.9 |
| 20260507031726 | 41 | 49 | 0.9 | 1.7 | 0.00 | 0.92 | 0.92 | 94 | 1030.6 |
| 20260507031223 | 41 | 55 | 0.9 | 0.9 | 0.00 | 0.92 | 0.92 | 94 | 1030.6 |
| 20260507030720 | 41 | 20 | 1.7 | 1.7 | 0.00 | 0.92 | 0.92 | 94 | 1030.6 |
| 20260507030218 | 41 | 39 | 2.6 | 4.3 | 0.00 | 0.92 | 0.92 | 94 | 1030.6 |
| 20260507025715 | 41 | 41 | 1.7 | 1.7 | 0.00 | 0.92 | 0.92 | 94 | 1030.7 |
| 20260507025212 | 42 | 54 | 0.0 | 0.0 | 0.00 | 0.92 | 0.92 | 94 | 1030.7 |
| 20260507024710 | 42 | 331 | 0.9 | 0.9 | 0.00 | 0.92 | 0.92 | 93 | 1030.4 |
| 20260507024207 | 42 | 37 | 0.9 | 0.9 | 0.00 | 0.92 | 0.92 | 93 | 1030.6 |
| 20260507023702 | 42 | 220 | 2.6 | 2.6 | 0.00 | 0.92 | 0.92 | 93 | 1030.4 |
| 20260507023159 | 42 | 302 | 1.7 | 2.6 | 0.00 | 0.92 | 0.92 | 93 | 1030.7 |
| 20260507022656 | 42 | 11 | 1.7 | 1.7 | 0.00 | 0.92 | 0.92 | 93 | 1030.6 |
| 20260507022152 | 42 | 28 | 0.9 | 0.9 | 0.00 | 0.92 | 0.92 | 93 | 1030.5 |
| 20260507021649 | 42 | 0 | 2.6 | 4.3 | 0.00 | 0.92 | 0.92 | 93 | 1030.7 |
| 20260507021144 | 43 | 48 | 0.9 | 0.9 | 0.00 | 0.92 | 0.92 | 92 | 1030.4 |
| 20260507020643 | 43 | 52 | 0.9 | 0.9 | 0.00 | 0.92 | 0.92 | 92 | 1030.5 |
| 20260507020138 | 43 | 27 | 0.0 | 0.9 | 0.00 | 0.92 | 0.92 | 91 | 1030.7 |
| 20260507015637 | 43 | 47 | 0.0 | 0.9 | 0.00 | 0.92 | 0.92 | 91 | 1030.4 |
| 20260507015134 | 43 | 274 | 4.3 | 6.1 | 0.00 | 0.92 | 0.92 | 90 | 1030.7 |
| 20260507014630 | 43 | 30 | 1.7 | 1.7 | 0.00 | 0.92 | 0.92 | 91 | 1030.5 |
| 20260507014126 | 43 | 350 | 1.7 | 1.7 | 0.00 | 0.92 | 0.92 | 91 | 1030.4 |
| 20260507013623 | 43 | 0 | 1.7 | 1.7 | 0.00 | 0.92 | 0.92 | 92 | 1030.3 |
| 20260507013120 | 44 | 303 | 2.6 | 2.6 | 0.00 | 0.92 | 0.92 | 93 | 1030.5 |
| 20260507012618 | 44 | 45 | 0.0 | 0.9 | 0.00 | 0.92 | 0.92 | 93 | 1030.3 |
| 20260507012113 | 44 | 351 | 0.9 | 1.7 | 0.00 | 0.92 | 0.92 | 92 | 1030.4 |
| 20260507011612 | 44 | 358 | 0.9 | 1.7 | 0.00 | 0.92 | 0.92 | 91 | 1030.5 |
| 20260507011107 | 44 | 295 | 5.2 | 7.0 | 0.00 | 0.92 | 0.92 | 92 | 1030.3 |
| 20260507010602 | 44 | 297 | 2.6 | 4.3 | 0.00 | 0.92 | 0.92 | 93 | 1030.1 |
| 20260507010058 | 44 | 273 | 6.1 | 7.8 | 0.00 | 0.92 | 0.92 | 95 | 1030.1 |
| 20260507005556 | 44 | 254 | 2.6 | 4.3 | 0.00 | 0.92 | 0.92 | 96 | 1030.1 |
| 20260507005052 | 45 | 348 | 0.9 | 1.7 | 0.00 | 0.92 | 0.92 | 96 | 1030.0 |
| 20260507004549 | 45 | 308 | 2.6 | 2.6 | 0.00 | 0.92 | 0.92 | 96 | 1029.7 |
| 20260507004047 | 45 | 303 | 1.7 | 1.7 | 0.00 | 0.92 | 0.92 | 97 | 1029.9 |
| 20260507003542 | 45 | 296 | 0.0 | 0.9 | 0.00 | 0.92 | 0.92 | 98 | 1029.7 |
| 20260507003038 | 45 | 29 | 0.0 | 0.9 | 0.00 | 0.92 | 0.92 | 98 | 1029.7 |
| 20260507002535 | 45 | 336 | 0.9 | 1.7 | 0.00 | 0.92 | 0.92 | 98 | 1029.6 |
| 20260507002030 | 45 | 46 | 0.0 | 0.0 | 0.00 | 0.92 | 0.92 | 99 | 1029.5 |
| 20260507001527 | 45 | 342 | 1.7 | 2.6 | 0.00 | 0.92 | 0.92 | 99 | 1029.5 |
| 20260507001025 | 45 | 48 | 0.0 | 0.0 | 0.00 | 0.92 | 0.92 | 99 | 1029.5 |
| 20260507000521 | 45 | 46 | 0.0 | 0.0 | 0.00 | 0.92 | 0.92 | 99 | 1029.6 |
| 20260507000016 | 45 | 45 | 0.9 | 0.9 | 0.00 | 0.92 | 0.92 | 99 | 1029.3 |
| 20260506235514 | 45 | 49 | 0.0 | 0.0 | 0.00 | 0.92 | 0.92 | 98 | 1029.1 |
| 20260506235009 | 45 | 47 | 0.0 | 0.0 | 0.00 | 0.92 | 0.92 | 98 | 1029.2 |
| 20260506234507 | 45 | 41 | 0.0 | 0.0 | 0.00 | 0.92 | 0.92 | 98 | 1029.2 |
| 20260506234004 | 45 | 36 | 0.9 | 0.9 | 0.00 | 0.92 | 0.92 | 98 | 1029.3 |
| 20260506233501 | 45 | 31 | 0.0 | 0.9 | 0.00 | 0.92 | 0.92 | 98 | 1029.2 |
| 20260506232957 | 46 | 74 | 0.0 | 0.0 | 0.00 | 0.92 | 0.92 | 98 | 1028.9 |
| 20260506232454 | 46 | 75 | 0.0 | 0.0 | 0.00 | 0.92 | 0.92 | 98 | 1029.1 |
| 20260506231950 | 46 | 75 | 0.0 | 0.0 | 0.00 | 0.92 | 0.92 | 98 | 1029.0 |
| 20260506231447 | 46 | 75 | 0.0 | 0.0 | 0.00 | 0.92 | 0.92 | 97 | 1029.1 |
| 20260506230944 | 46 | 76 | 0.0 | 0.0 | 0.00 | 0.92 | 0.92 | 97 | 1029.0 |
| 20260506230440 | 46 | 75 | 0.0 | 0.0 | 0.00 | 0.92 | 0.92 | 97 | 1028.9 |
| 20260506225937 | 46 | 75 | 0.0 | 0.0 | 0.00 | 0.92 | 0.92 | 96 | 1029.0 |
| 20260506225435 | 46 | 70 | 0.0 | 0.0 | 0.00 | 0.92 | 0.92 | 96 | 1029.0 |
| 20260506224931 | 46 | 61 | 0.9 | 0.9 | 0.00 | 0.92 | 0.92 | 96 | 1029.0 |
| 20260506224429 | 46 | 56 | 0.0 | 0.0 | 0.00 | 0.92 | 0.92 | 96 | 1028.7 |
| 20260506223925 | 46 | 64 | 0.0 | 0.0 | 0.00 | 0.92 | 0.92 | 95 | 1028.7 |
| 20260506223420 | 46 | 72 | 0.0 | 0.0 | 0.00 | 0.92 | 0.92 | 96 | 1028.7 |
| 20260506222918 | 46 | 76 | 0.0 | 0.0 | 0.00 | 0.92 | 0.92 | 95 | 1028.6 |
| 20260506222414 | 46 | 90 | 0.0 | 0.0 | 0.00 | 0.92 | 0.92 | 95 | 1028.6 |
| 20260506221911 | 46 | 73 | 0.0 | 0.0 | 0.00 | 0.92 | 0.92 | 96 | 1028.5 |
| 20260506221408 | 46 | 72 | 0.0 | 0.0 | 0.00 | 0.92 | 0.92 | 96 | 1028.3 |
| 20260506220906 | 46 | 75 | 0.0 | 0.0 | 0.00 | 0.92 | 0.92 | 97 | 1028.5 |
| 20260506220401 | 46 | 78 | 0.0 | 0.0 | 0.00 | 0.92 | 0.92 | 97 | 1028.3 |
| 20260506215858 | 46 | 78 | 0.0 | 0.0 | 0.00 | 0.92 | 0.92 | 97 | 1028.2 |
| 20260506215354 | 46 | 82 | 0.0 | 0.0 | 0.00 | 0.92 | 0.92 | 97 | 1028.6 |
| 20260506214850 | 46 | 85 | 0.0 | 0.0 | 0.00 | 0.92 | 0.92 | 97 | 1028.5 |
| 20260506214347 | 46 | 89 | 0.0 | 0.9 | 0.00 | 0.92 | 0.92 | 97 | 1028.8 |
| 20260506213845 | 46 | 82 | 0.0 | 0.0 | 0.00 | 0.92 | 0.92 | 97 | 1028.7 |
| 20260506213342 | 46 | 86 | 0.0 | 0.0 | 0.00 | 0.92 | 0.92 | 97 | 1028.5 |
| 20260506212839 | 46 | 72 | 0.0 | 0.0 | 0.00 | 0.92 | 0.92 | 97 | 1028.7 |
| 20260506212336 | 46 | 78 | 0.0 | 0.0 | 0.00 | 0.92 | 0.92 | 97 | 1028.5 |
| 20260506211830 | 46 | 153 | 0.9 | 0.9 | 0.00 | 0.92 | 0.92 | 97 | 1028.5 |
| 20260506211327 | 46 | 234 | 2.6 | 4.3 | 0.00 | 0.92 | 0.92 | 96 | 1028.5 |
| 20260506210824 | 46 | 335 | 0.0 | 0.9 | 0.00 | 0.92 | 0.92 | 94 | 1028.5 |
| 20260506210321 | 46 | 23 | 0.0 | 0.0 | 0.00 | 0.92 | 0.92 | 94 | 1028.6 |
| 20260506205818 | 46 | 16 | 0.9 | 0.9 | 0.00 | 0.92 | 0.92 | 94 | 1028.5 |
| 20260506205314 | 46 | 49 | 0.0 | 0.9 | 0.00 | 0.92 | 0.92 | 95 | 1028.6 |
| 20260506204810 | 45 | 52 | 0.0 | 0.0 | 0.00 | 0.92 | 0.92 | 95 | 1028.4 |
| 20260506204308 | 45 | 42 | 0.0 | 0.0 | 0.00 | 0.92 | 0.92 | 95 | 1028.3 |
| 20260506203806 | 45 | 27 | 0.0 | 0.0 | 0.00 | 0.92 | 0.92 | 96 | 1028.2 |
| 20260506203303 | 45 | 41 | 0.9 | 0.9 | 0.00 | 0.92 | 0.92 | 97 | 1028.6 |
| 20260506202800 | 45 | 34 | 1.7 | 2.6 | 0.00 | 0.92 | 0.92 | 97 | 1028.4 |
| 20260506202257 | 45 | 54 | 0.9 | 1.7 | 0.00 | 0.92 | 0.92 | 98 | 1028.5 |
| 20260506201753 | 45 | 18 | 0.9 | 1.7 | 0.00 | 0.92 | 0.92 | 98 | 1028.4 |
| 20260506201250 | 45 | 32 | 0.0 | 0.9 | 0.00 | 0.92 | 0.92 | 98 | 1028.6 |
| 20260506200747 | 45 | 46 | 0.9 | 0.9 | 0.00 | 0.92 | 0.92 | 99 | 1028.5 |
| 20260506200243 | 45 | 44 | 1.7 | 1.7 | 0.00 | 0.92 | 0.92 | 99 | 1028.3 |
| 20260506195740 | 44 | 49 | 0.0 | 0.9 | 0.00 | 0.92 | 0.92 | 99 | 1028.1 |
| 20260506195236 | 45 | 41 | 0.0 | 0.0 | 0.00 | 0.92 | 0.92 | 99 | 1028.1 |
| 20260506194734 | 45 | 35 | 1.7 | 1.7 | 0.00 | 0.92 | 0.92 | 99 | 1028.4 |
| 20260506194230 | 45 | 47 | 2.6 | 2.6 | 0.00 | 0.92 | 0.92 | 99 | 1028.2 |
| 20260506193728 | 44 | 16 | 0.9 | 0.9 | 0.00 | 0.92 | 0.92 | 99 | 1028.0 |
| 20260506193225 | 44 | 45 | 0.9 | 0.9 | 0.00 | 0.92 | 0.92 | 99 | 1028.4 |
| 20260506192721 | 44 | 50 | 1.7 | 1.7 | 0.00 | 0.92 | 0.92 | 99 | 1028.1 |
| 20260506192218 | 45 | 30 | 3.5 | 5.2 | 0.00 | 0.92 | 0.92 | 99 | 1028.1 |
| 20260506191715 | 44 | 37 | 0.9 | 0.9 | 0.00 | 0.92 | 0.92 | 99 | 1028.3 |
| 20260506191211 | 44 | 31 | 0.9 | 0.9 | 0.00 | 0.92 | 0.92 | 99 | 1028.1 |
| 20260506190708 | 44 | 70 | 0.9 | 1.7 | 0.00 | 0.92 | 0.92 | 99 | 1028.3 |
| 20260506190204 | 44 | 48 | 0.9 | 1.7 | 0.07 | 0.92 | 0.92 | 99 | 1028.0 |
| 20260506185702 | 44 | 49 | 0.0 | 0.0 | 0.07 | 0.92 | 0.92 | 99 | 1028.1 |
| 20260506185158 | 44 | 52 | 0.0 | 0.0 | 0.00 | 0.91 | 0.91 | 99 | 1027.7 |
| 20260506184650 | 44 | 48 | 0.0 | 0.0 | 0.00 | 0.91 | 0.91 | 99 | 1027.8 |
| 20260506184147 | 44 | 59 | 0.0 | 0.9 | 0.00 | 0.91 | 0.91 | 99 | 1027.8 |
| 20260506183644 | 44 | 45 | 0.0 | 0.0 | 0.00 | 0.91 | 0.91 | 99 | 1028.0 |
| 20260506183140 | 44 | 36 | 0.0 | 0.0 | 0.00 | 0.91 | 0.91 | 99 | 1027.8 |
| 20260506182637 | 44 | 48 | 0.0 | 0.0 | 0.00 | 0.91 | 0.91 | 99 | 1027.8 |
| 20260506182134 | 44 | 43 | 0.0 | 0.9 | 0.00 | 0.91 | 0.91 | 99 | 1027.7 |
| 20260506181632 | 44 | 39 | 1.7 | 2.6 | 0.00 | 0.91 | 0.91 | 99 | 1027.6 |
| 20260506181129 | 44 | 46 | 0.0 | 0.9 | 0.00 | 0.91 | 0.91 | 99 | 1027.7 |
| 20260506180626 | 43 | 69 | 0.0 | 0.0 | 0.00 | 0.91 | 0.91 | 99 | 1027.8 |
| 20260506180122 | 44 | 56 | 0.9 | 1.7 | 0.00 | 0.91 | 0.91 | 99 | 1027.7 |
| 20260506175619 | 44 | 7 | 0.9 | 1.7 | 0.00 | 0.91 | 0.91 | 99 | 1027.8 |
| 20260506175114 | 43 | 10 | 0.9 | 0.9 | 0.00 | 0.91 | 0.91 | 99 | 1027.7 |
| 20260506174614 | 44 | 10 | 0.0 | 0.0 | 0.00 | 0.91 | 0.91 | 99 | 1027.6 |
| 20260506174110 | 43 | 345 | 0.0 | 0.0 | 0.00 | 0.91 | 0.91 | 99 | 1027.5 |
| 20260506173608 | 44 | 35 | 0.0 | 0.0 | 0.00 | 0.91 | 0.91 | 99 | 1027.6 |
| 20260506173104 | 44 | 43 | 0.9 | 1.7 | 0.00 | 0.91 | 0.91 | 99 | 1027.3 |
| 20260506172602 | 44 | 38 | 0.0 | 0.0 | 0.00 | 0.91 | 0.91 | 99 | 1027.5 |
| 20260506172057 | 44 | 63 | 0.0 | 0.0 | 0.00 | 0.91 | 0.91 | 99 | 1027.2 |
| 20260506171555 | 44 | 63 | 0.0 | 0.0 | 0.00 | 0.91 | 0.91 | 99 | 1027.1 |
| 20260506171052 | 44 | 60 | 0.9 | 0.9 | 0.00 | 0.91 | 0.91 | 99 | 1027.2 |
| 20260506170544 | 44 | 61 | 0.0 | 0.0 | 0.00 | 0.91 | 0.91 | 99 | 1027.1 |
| 20260506170041 | 44 | 64 | 0.0 | 0.0 | 0.00 | 0.91 | 0.91 | 99 | 1027.0 |
| 20260506165540 | 44 | 62 | 0.0 | 0.0 | 0.00 | 0.91 | 0.91 | 99 | 1027.2 |
| 20260506165036 | 44 | 64 | 0.0 | 0.0 | 0.00 | 0.91 | 0.91 | 99 | 1026.9 |
| 20260506164533 | 44 | 66 | 0.0 | 0.0 | 0.00 | 0.91 | 0.91 | 99 | 1027.0 |
| 20260506164030 | 44 | 67 | 0.0 | 0.0 | 0.00 | 0.91 | 0.91 | 99 | 1027.0 |
| 20260506163526 | 44 | 64 | 0.0 | 0.0 | 0.00 | 0.91 | 0.91 | 99 | 1027.2 |
| 20260506163022 | 44 | 68 | 0.0 | 0.9 | 0.00 | 0.91 | 0.91 | 99 | 1027.0 |
| 20260506162518 | 43 | 44 | 0.9 | 0.9 | 0.00 | 0.91 | 0.91 | 99 | 1027.0 |
| 20260506162015 | 44 | 63 | 0.9 | 1.7 | 0.00 | 0.91 | 0.91 | 99 | 1026.9 |
| 20260506161513 | 43 | 60 | 0.0 | 0.9 | 0.00 | 0.91 | 0.91 | 99 | 1026.9 |
| 20260506161010 | 43 | 66 | 0.0 | 0.0 | 0.00 | 0.91 | 0.91 | 99 | 1026.9 |
| 20260506160507 | 44 | 75 | 0.0 | 0.9 | 0.00 | 0.91 | 0.91 | 99 | 1026.7 |
| 20260506160005 | 44 | 66 | 0.0 | 0.0 | 0.00 | 0.91 | 0.91 | 99 | 1026.8 |
| 20260506155502 | 43 | 59 | 0.0 | 0.0 | 0.00 | 0.91 | 0.91 | 99 | 1027.2 |
| 20260506153634 | 43 | 67 | 0.0 | 0.0 | 0.05 | 0.91 | 0.91 | 99 | 1027.2 |
| 20260506153131 | 43 | 59 | 0.0 | 0.0 | 0.00 | 0.90 | 0.90 | 99 | 1027.1 |
| 20260506152628 | 43 | 55 | 0.0 | 0.9 | 0.07 | 0.90 | 0.90 | 99 | 1027.3 |
| 20260506152126 | 43 | 58 | 0.0 | 0.0 | 0.07 | 0.90 | 0.90 | 99 | 1027.3 |
| 20260506151625 | 42 | 55 | 0.9 | 0.9 | 0.00 | 0.89 | 0.89 | 99 | 1027.2 |
| 20260506151121 | 42 | 61 | 0.0 | 0.0 | 0.05 | 0.89 | 0.89 | 99 | 1027.3 |
| 20260506150618 | 42 | 57 | 0.0 | 0.0 | 0.05 | 0.89 | 0.89 | 99 | 1027.0 |
| 20260506150115 | 42 | 59 | 0.0 | 0.0 | 0.00 | 0.88 | 0.88 | 99 | 1027.0 |
| 20260506145612 | 42 | 54 | 0.0 | 0.0 | 0.00 | 0.88 | 0.88 | 99 | 1027.0 |
| 20260506145109 | 42 | 55 | 0.0 | 0.0 | 0.07 | 0.88 | 0.88 | 99 | 1026.9 |
| 20260506144606 | 42 | 42 | 0.9 | 1.7 | 0.07 | 0.88 | 0.88 | 99 | 1026.7 |
| 20260506144102 | 42 | 66 | 0.0 | 0.0 | 0.07 | 0.88 | 0.88 | 99 | 1026.7 |
| 20260506143600 | 42 | 61 | 0.0 | 0.0 | 0.00 | 0.87 | 0.87 | 99 | 1026.9 |
| 20260506143058 | 41 | 62 | 0.0 | 0.0 | 0.00 | 0.87 | 0.87 | 99 | 1026.7 |
| 20260506142556 | 41 | 61 | 0.0 | 0.0 | 0.05 | 0.87 | 0.87 | 99 | 1026.5 |
| 20260506142054 | 41 | 61 | 0.0 | 0.0 | 0.05 | 0.87 | 0.87 | 99 | 1026.5 |
| 20260506141551 | 41 | 54 | 0.0 | 0.0 | 0.00 | 0.86 | 0.86 | 99 | 1026.4 |
| 20260506141050 | 41 | 60 | 0.0 | 0.0 | 0.00 | 0.86 | 0.86 | 99 | 1026.7 |
| 20260506140547 | 41 | 58 | 0.0 | 0.0 | 0.00 | 0.86 | 0.86 | 99 | 1026.4 |
| 20260506140044 | 41 | 52 | 0.0 | 0.0 | 0.00 | 0.86 | 0.86 | 99 | 1026.6 |
| 20260506135540 | 41 | 64 | 0.0 | 0.0 | 0.00 | 0.86 | 0.86 | 99 | 1026.3 |
| 20260506135036 | 41 | 102 | 0.0 | 0.0 | 0.00 | 0.86 | 0.86 | 99 | 1026.4 |
| 20260506134533 | 41 | 61 | 0.0 | 0.0 | 0.00 | 0.86 | 0.86 | 99 | 1026.6 |
| 20260506134029 | 42 | 63 | 0.0 | 0.0 | 0.00 | 0.86 | 0.86 | 99 | 1026.7 |
| 20260506133526 | 41 | 62 | 0.0 | 0.0 | 0.00 | 0.86 | 0.86 | 99 | 1026.5 |
| 20260506133023 | 41 | 58 | 0.0 | 0.0 | 0.07 | 0.86 | 0.86 | 99 | 1026.5 |
| 20260506132520 | 41 | 54 | 0.0 | 0.0 | 0.07 | 0.86 | 0.86 | 99 | 1026.6 |
| 20260506132018 | 41 | 59 | 0.0 | 0.0 | 0.00 | 0.85 | 0.85 | 99 | 1026.4 |
| 20260506131515 | 41 | 7 | 0.0 | 1.7 | 0.00 | 0.85 | 0.85 | 99 | 1026.5 |
| 20260506131011 | 41 | 26 | 2.6 | 2.6 | 0.00 | 0.85 | 0.85 | 99 | 1026.6 |
| 20260506130508 | 41 | 58 | 0.0 | 0.0 | 0.00 | 0.85 | 0.85 | 99 | 1026.5 |
| 20260506130006 | 41 | 57 | 0.0 | 0.0 | 0.07 | 0.85 | 0.85 | 99 | 1026.5 |
| 20260506125504 | 41 | 56 | 0.0 | 0.0 | 0.07 | 0.85 | 0.85 | 99 | 1026.4 |
| 20260506125001 | 41 | 61 | 0.0 | 0.0 | 0.05 | 0.84 | 0.84 | 99 | 1026.4 |
| 20260506124459 | 41 | 60 | 0.0 | 0.0 | 0.05 | 0.84 | 0.84 | 99 | 1026.4 |
| 20260506123957 | 41 | 57 | 0.0 | 0.0 | 0.07 | 0.83 | 0.83 | 99 | 1026.5 |
| 20260506123454 | 41 | 64 | 0.0 | 0.0 | 0.12 | 0.83 | 0.83 | 99 | 1026.7 |
| 20260506122952 | 41 | 60 | 0.0 | 0.9 | 0.17 | 0.82 | 0.82 | 99 | 1026.4 |
| 20260506122448 | 41 | 55 | 0.9 | 0.9 | 0.19 | 0.81 | 0.81 | 99 | 1027.0 |
| 20260506121947 | 41 | 58 | 0.0 | 0.9 | 0.24 | 0.80 | 0.80 | 99 | 1027.0 |
| 20260506121444 | 41 | 77 | 0.0 | 0.0 | 0.35 | 0.78 | 0.78 | 99 | 1026.7 |
| 20260506120940 | 41 | 58 | 0.0 | 0.0 | 0.24 | 0.76 | 0.76 | 99 | 1026.9 |
| 20260506120438 | 41 | 63 | 0.0 | 0.0 | 0.14 | 0.73 | 0.73 | 99 | 1026.9 |
| 20260506115935 | 41 | 55 | 0.9 | 1.7 | 0.12 | 0.72 | 0.72 | 99 | 1026.5 |
| 20260506115433 | 41 | 59 | 0.0 | 0.9 | 0.05 | 0.71 | 0.71 | 99 | 1026.6 |
| 20260506114931 | 41 | 60 | 0.0 | 0.9 | 0.07 | 0.70 | 0.70 | 99 | 1026.2 |
| 20260506114428 | 41 | 60 | 1.7 | 2.6 | 0.12 | 0.70 | 0.70 | 99 | 1026.3 |
| 20260506113927 | 41 | 55 | 1.7 | 1.7 | 0.05 | 0.69 | 0.69 | 99 | 1026.3 |
| 20260506113425 | 41 | 57 | 0.9 | 0.9 | 0.12 | 0.69 | 0.69 | 99 | 1026.2 |
| 20260506112921 | 41 | 63 | 0.0 | 0.9 | 0.12 | 0.68 | 0.68 | 99 | 1026.3 |
| 20260506112419 | 41 | 53 | 0.0 | 0.0 | 0.05 | 0.67 | 0.67 | 99 | 1026.0 |
| 20260506111916 | 41 | 56 | 0.9 | 0.9 | 0.07 | 0.66 | 0.66 | 99 | 1026.2 |
| 20260506111414 | 41 | 52 | 0.9 | 1.7 | 0.12 | 0.66 | 0.66 | 99 | 1026.3 |
| 20260506110910 | 41 | 60 | 0.0 | 0.0 | 0.05 | 0.65 | 0.65 | 99 | 1026.2 |
| 20260506110408 | 41 | 54 | 0.0 | 0.9 | 0.05 | 0.65 | 0.65 | 99 | 1026.6 |
| 20260506105904 | 41 | 51 | 0.0 | 0.9 | 0.07 | 0.64 | 0.64 | 99 | 1025.9 |
| 20260506105401 | 42 | 55 | 0.0 | 0.0 | 0.05 | 0.63 | 0.63 | 99 | 1026.2 |
| 20260506104858 | 42 | 43 | 1.7 | 2.6 | 0.12 | 0.63 | 0.63 | 99 | 1026.3 |
| 20260506104356 | 42 | 49 | 0.9 | 0.9 | 0.12 | 0.63 | 0.63 | 99 | 1025.9 |
| 20260506103854 | 42 | 53 | 0.9 | 0.9 | 0.14 | 0.62 | 0.62 | 99 | 1026.2 |
| 20260506103351 | 42 | 40 | 1.7 | 2.6 | 0.12 | 0.61 | 0.61 | 99 | 1025.9 |
| 20260506102848 | 43 | 58 | 0.0 | 1.7 | 0.12 | 0.60 | 0.60 | 99 | 1025.9 |
| 20260506102346 | 43 | 55 | 0.9 | 0.9 | 0.19 | 0.59 | 0.59 | 99 | 1026.2 |
| 20260506101843 | 43 | 48 | 0.0 | 0.0 | 0.12 | 0.57 | 0.57 | 99 | 1026.2 |
| 20260506101339 | 43 | 62 | 0.0 | 0.0 | 0.12 | 0.56 | 0.56 | 99 | 1026.2 |
| 20260506100837 | 43 | 63 | 0.0 | 0.0 | 0.19 | 0.55 | 0.55 | 99 | 1026.3 |
| 20260506100335 | 43 | 54 | 0.0 | 0.9 | 0.17 | 0.54 | 0.54 | 99 | 1025.9 |
| 20260506095833 | 43 | 27 | 0.0 | 0.9 | 0.05 | 0.52 | 0.52 | 99 | 1026.0 |
| 20260506095330 | 43 | 26 | 0.9 | 1.7 | 0.12 | 0.51 | 0.51 | 99 | 1026.0 |
| 20260506094826 | 43 | 30 | 4.3 | 5.2 | 0.19 | 0.51 | 0.51 | 99 | 1025.6 |
| 20260506094326 | 43 | 56 | 0.0 | 0.0 | 0.24 | 0.50 | 0.50 | 99 | 1025.6 |
| 20260506093823 | 44 | 57 | 0.0 | 0.0 | 0.24 | 0.48 | 0.48 | 99 | 1025.8 |
| 20260506093320 | 44 | 59 | 0.0 | 0.0 | 0.19 | 0.46 | 0.46 | 99 | 1025.5 |
| 20260506092818 | 44 | 61 | 0.0 | 0.0 | 0.19 | 0.44 | 0.44 | 99 | 1025.7 |
| 20260506092315 | 44 | 37 | 0.0 | 0.0 | 0.31 | 0.44 | 0.44 | 99 | 1025.9 |
| 20260506091812 | 44 | 63 | 0.0 | 0.0 | 0.19 | 0.42 | 0.42 | 99 | 1026.2 |
| 20260506091310 | 44 | 57 | 0.0 | 0.0 | 0.05 | 0.39 | 0.39 | 99 | 1025.7 |
| 20260506090808 | 44 | 51 | 0.0 | 0.0 | 0.05 | 0.39 | 0.39 | 99 | 1025.6 |
| 20260506090304 | 44 | 58 | 0.0 | 0.0 | 0.07 | 0.38 | 0.38 | 99 | 1025.4 |
| 20260506085801 | 44 | 57 | 0.0 | 0.0 | 0.12 | 0.38 | 0.38 | 99 | 1026.0 |
| 20260506085257 | 44 | 60 | 0.0 | 0.0 | 0.12 | 0.37 | 0.37 | 99 | 1026.2 |
| 20260506084754 | 44 | 53 | 0.0 | 0.0 | 0.12 | 0.37 | 0.37 | 99 | 1026.2 |
| 20260506084250 | 44 | 61 | 0.0 | 0.0 | 0.14 | 0.36 | 0.36 | 99 | 1026.2 |
| 20260506083747 | 44 | 54 | 0.0 | 0.0 | 0.12 | 0.35 | 0.35 | 99 | 1026.3 |
| 20260506083245 | 44 | 57 | 0.9 | 0.9 | 0.12 | 0.34 | 0.34 | 99 | 1026.2 |
| 20260506082743 | 45 | 48 | 0.0 | 0.0 | 0.07 | 0.33 | 0.33 | 99 | 1026.3 |
| 20260506082237 | 45 | 58 | 0.0 | 0.0 | 0.05 | 0.32 | 0.32 | 99 | 1026.5 |
| 20260506081736 | 45 | 48 | 0.0 | 0.0 | 0.05 | 0.32 | 0.32 | 99 | 1026.6 |
| 20260506081233 | 45 | 64 | 0.0 | 0.0 | 0.07 | 0.31 | 0.31 | 99 | 1026.5 |
| 20260506080731 | 45 | 39 | 0.0 | 0.0 | 0.12 | 0.31 | 0.31 | 99 | 1026.5 |
| 20260506080227 | 45 | 63 | 0.0 | 0.0 | 0.12 | 0.30 | 0.30 | 99 | 1026.4 |
| 20260506073211 | 46 | 54 | 0.0 | 0.0 | 0.31 | 0.23 | 0.23 | 99 | 1026.5 |
| 20260506072708 | 46 | 33 | 0.0 | 0.0 | 0.28 | 0.21 | 0.21 | 99 | 1026.4 |
| 20260506072206 | 46 | 49 | 0.0 | 0.0 | 0.19 | 0.18 | 0.18 | 99 | 1026.4 |
| 20260506071703 | 46 | 47 | 0.0 | 0.0 | 0.17 | 0.17 | 0.17 | 99 | 1026.3 |
| 20260506071201 | 45 | 42 | 0.0 | 0.0 | 0.12 | 0.15 | 0.15 | 99 | 1026.3 |
| 20260506070657 | 46 | 63 | 0.0 | 0.0 | 0.07 | 0.14 | 0.14 | 99 | 1026.0 |